Terminal Aerodrome Forecast
Issued by NWS Sterling, VA

Current Version | Previous Version | Text Only | Print | Product List | Glossary Off
Versions: 1 2 3 4 5 6 7 8 9 10 11 12 13 14 15 16 17 18 19 20 21

316
FTUS41 KLWX 282104 AAA
TAFDCA
TAF AMD
KDCA 282104Z 2821/2918 06010KT 6SM SHRA VCTS OVC010CB
     FM290000 08010KT 3SM +SHRA VCTS OVC008CB
     FM290900 09011KT 3SM +SHRA OVC008
     FM291200 09011KT 2SM SHRA OVC010=

USA.gov is the U.S. government's official web portal to all federal, state and local government web resources and services.